Time;durP1;ratioP1;P1;durP2;ratioP2;P2;SDS_P1;SDS_P2;PMS_P1;PMS_P2;Temp;Humidity;BMP_temperature;BMP_pressure;BME280_temperature;BME280_humidity;BME280_pressure;Samples;Min_cycle;Max_cycle;Signal;HPM_P1;HPM_P2
2021/04/19 00:01:26;;;;;;;18.08;10.30;;;8.90;99.90;;;;;;5034946;28;20359;-65
2021/04/19 00:03:52;;;;;;;18.92;10.45;;;8.80;99.90;;;;;;5034847;28;20083;-65
2021/04/19 00:06:18;;;;;;;21.58;10.48;;;8.80;99.90;;;;;;5034857;28;20041;-65
2021/04/19 00:08:44;;;;;;;22.02;10.07;;;8.70;99.90;;;;;;5034752;28;20112;-65
2021/04/19 00:11:09;;;;;;;18.38;10.52;;;8.80;99.90;;;;;;5034745;28;20120;-65
2021/04/19 00:13:35;;;;;;;17.85;9.40;;;8.80;99.90;;;;;;5034708;28;20034;-65
2021/04/19 00:16:01;;;;;;;18.48;10.13;;;8.80;99.90;;;;;;5034001;28;20030;-65
2021/04/19 00:18:26;;;;;;;18.45;10.45;;;8.90;99.90;;;;;;5034569;28;20030;-65
2021/04/19 00:20:52;;;;;;;17.65;9.75;;;8.70;99.90;;;;;;5034343;28;20049;-65
2021/04/19 00:23:18;;;;;;;18.38;10.25;;;8.50;99.90;;;;;;5034618;28;20036;-65
2021/04/19 00:25:45;;;;;;;20.27;10.43;;;8.40;99.90;;;;;;5034426;28;20064;-65
2021/04/19 00:28:11;;;;;;;18.00;10.25;;;8.50;99.90;;;;;;5034605;28;20359;-65
2021/04/19 00:30:37;;;;;;;20.48;11.80;;;8.50;99.90;;;;;;5034455;28;20041;-65
2021/04/19 00:33:03;;;;;;;21.17;11.50;;;8.60;99.90;;;;;;5034325;28;20474;-65
2021/04/19 00:35:28;;;;;;;22.25;11.25;;;8.70;99.90;;;;;;5034375;28;20026;-65
2021/04/19 00:37:54;;;;;;;20.77;11.27;;;8.70;99.90;;;;;;5034381;28;20363;-65
2021/04/19 00:40:21;;;;;;;20.23;10.27;;;8.80;99.90;;;;;;5034384;28;20421;-65
2021/04/19 00:42:53;;;;;;;19.23;10.73;;;8.70;99.90;;;;;;5034069;28;20049;-65
2021/04/19 00:45:20;;;;;;;22.73;11.75;;;8.60;99.90;;;;;;5034207;28;20030;-65
2021/04/19 00:47:46;;;;;;;20.23;11.10;;;8.60;99.90;;;;;;5033758;28;20095;-65
2021/04/19 00:50:24;;;;;;;21.17;11.65;;;8.70;99.90;;;;;;5034227;28;20063;-65
2021/04/19 00:52:52;;;;;;;19.38;11.52;;;8.70;99.90;;;;;;5033975;28;20489;-65
2021/04/19 00:55:18;;;;;;;22.52;11.25;;;8.80;99.90;;;;;;5016497;28;20087;-65
2021/04/19 00:57:45;;;;;;;19.17;11.27;;;8.90;99.90;;;;;;5033955;28;20466;-65
2021/04/19 01:00:28;;;;;;;18.98;10.60;;;8.80;99.90;;;;;;5033940;28;20049;-65
2021/04/19 01:02:55;;;;;;;18.02;10.27;;;8.90;99.90;;;;;;5033619;28;20381;-65
2021/04/19 01:05:34;;;;;;;20.17;11.35;;;8.60;99.90;;;;;;5033743;28;20485;-65
2021/04/19 01:08:00;;;;;;;21.23;11.35;;;8.60;99.90;;;;;;5033394;28;20382;-65
2021/04/19 01:10:27;;;;;;;23.65;13.00;;;8.70;99.90;;;;;;5033539;28;20051;-65
2021/04/19 01:12:53;;;;;;;22.00;12.73;;;8.50;99.90;;;;;;5033633;28;20072;-65
2021/04/19 01:15:20;;;;;;;26.08;13.77;;;8.40;99.90;;;;;;5015764;28;20056;-65
2021/04/19 01:17:46;;;;;;;28.20;14.50;;;8.50;99.90;;;;;;5033421;28;20037;-65
2021/04/19 01:20:22;;;;;;;23.58;14.43;;;8.50;99.90;;;;;;5033059;28;20517;-64
2021/04/19 01:22:49;;;;;;;28.38;15.77;;;8.50;99.90;;;;;;5033435;28;20030;-64
2021/04/19 01:25:20;;;;;;;27.60;16.77;;;8.50;99.90;;;;;;5015774;28;20060;-64
2021/04/19 01:27:46;;;;;;;;;;;8.60;99.90;;;;;;5033801;28;20040;-64
2021/04/19 01:30:15;;;;;;;27.95;14.05;;;8.70;99.90;;;;;;5033388;28;19913;-64
2021/04/19 01:32:43;;;;;;;28.85;15.93;;;8.80;99.90;;;;;;5032765;28;20056;-64
2021/04/19 01:35:11;;;;;;;28.73;15.65;;;8.80;99.90;;;;;;5032683;28;20029;-63
2021/04/19 01:37:37;;;;;;;27.38;17.02;;;8.90;99.90;;;;;;5032066;28;20041;-64
2021/04/19 01:40:06;;;;;;;30.65;16.48;;;8.90;99.90;;;;;;5032805;28;20466;-63
2021/04/19 01:42:32;;;;;;;35.50;17.15;;;8.80;99.90;;;;;;5032950;28;20475;-64
2021/04/19 01:44:58;;;;;;;27.65;16.20;;;8.80;99.90;;;;;;5033039;28;20044;-64
2021/04/19 01:47:25;;;;;;;27.45;16.10;;;8.90;99.90;;;;;;5032988;28;20036;-64
2021/04/19 01:49:51;;;;;;;31.20;17.35;;;8.90;99.90;;;;;;5033076;28;20462;-64
2021/04/19 01:52:17;;;;;;;36.15;17.25;;;8.90;99.90;;;;;;5032993;28;20699;-64
2021/04/19 01:54:43;;;;;;;29.92;17.27;;;8.90;99.90;;;;;;5032319;28;20034;-64
2021/04/19 01:57:09;;;;;;;31.85;17.10;;;8.90;99.90;;;;;;5032963;28;20052;-65
2021/04/19 01:59:36;;;;;;;34.75;18.13;;;8.80;99.90;;;;;;5032664;28;20065;-65
2021/04/19 02:02:32;;;;;;;38.03;18.80;;;8.80;99.90;;;;;;5032813;28;20505;-65
2021/04/19 02:05:23;;;;;;;34.55;17.80;;;8.80;99.90;;;;;;5016456;28;20034;-64
2021/04/19 02:08:38;;;;;;;35.92;19.85;;;8.70;99.90;;;;;;5016231;28;20025;-65
2021/04/19 02:11:49;;;;;;;34.38;18.67;;;8.80;99.90;;;;;;5032694;28;20426;-65
2021/04/19 02:14:45;;;;;;;34.70;18.73;;;8.70;99.90;;;;;;5001078;28;20450;-65
2021/04/19 02:18:01;;;;;;;38.20;20.52;;;8.60;99.90;;;;;;5014672;28;20045;-64
2021/04/19 02:20:31;;;;;;;36.45;20.35;;;8.50;99.90;;;;;;5017502;28;20099;-64
2021/04/19 02:23:09;;;;;;;36.38;20.88;;;8.40;99.90;;;;;;5014861;28;20470;-65
2021/04/19 02:25:41;;;;;;;42.88;23.35;;;8.50;99.90;;;;;;5015256;28;20124;-64
2021/04/19 02:28:22;;;;;;;39.17;21.75;;;8.50;99.90;;;;;;5032466;28;20025;-64
2021/04/19 02:30:57;;;;;;;39.53;20.55;;;8.60;99.90;;;;;;5015425;28;20461;-64
2021/04/19 02:33:24;;;;;;;41.42;20.98;;;8.50;99.90;;;;;;5015447;28;20481;-64
2021/04/19 02:35:50;;;;;;;40.28;20.83;;;8.40;99.90;;;;;;5032229;28;20052;-65
2021/04/19 02:38:23;;;;;;;39.63;21.50;;;8.50;99.90;;;;;;5014428;28;20382;-65
2021/04/19 02:40:51;;;;;;;36.38;20.67;;;8.50;99.90;;;;;;5014956;28;20032;-65
2021/04/19 02:43:20;;;;;;;35.65;19.80;;;8.50;99.90;;;;;;5014769;28;20033;-65
2021/04/19 02:45:45;;;;;;;42.15;21.77;;;8.50;99.90;;;;;;5014843;28;20033;-65
2021/04/19 02:48:14;;;;;;;42.72;21.88;;;8.40;99.90;;;;;;5032257;28;20025;-64
2021/04/19 02:50:40;;;;;;;43.33;22.23;;;8.30;99.90;;;;;;5014586;28;20057;-65
2021/04/19 02:53:07;;;;;;;41.38;21.80;;;8.40;99.90;;;;;;5014741;28;20041;-64
2021/04/19 02:55:34;;;;;;;42.45;21.90;;;8.40;99.90;;;;;;5014572;28;20029;-63
2021/04/19 02:58:04;;;;;;;42.15;21.27;;;8.30;99.90;;;;;;5032285;28;20446;-64
2021/04/19 03:00:34;;;;;;;36.15;20.70;;;8.30;99.90;;;;;;5032292;28;20040;-64
2021/04/19 03:03:17;;;;;;;44.83;22.20;;;8.40;99.90;;;;;;5032159;28;20034;-64
2021/04/19 03:05:45;;;;;;;37.65;21.27;;;8.50;99.90;;;;;;5014821;28;20041;-65
2021/04/19 03:08:17;;;;;;;39.97;23.13;;;8.40;99.90;;;;;;5014704;28;20037;-64
2021/04/19 03:10:58;;;;;;;38.40;21.48;;;8.50;99.90;;;;;;5014570;28;20443;-64
2021/04/19 03:13:26;;;;;;;40.33;22.73;;;8.50;99.90;;;;;;4999739;28;20029;-65
2021/04/19 03:15:56;;;;;;;41.78;21.85;;;8.50;99.90;;;;;;5031901;28;20120;-65
2021/04/19 03:18:24;;;;;;;40.08;21.08;;;8.40;99.90;;;;;;5032073;28;20510;-64
2021/04/19 03:21:16;;;;;;;42.85;21.77;;;8.50;99.90;;;;;;5013801;28;20045;-64
2021/04/19 03:23:52;;;;;;;38.50;21.77;;;8.60;99.90;;;;;;5014847;28;20097;-65
2021/04/19 03:26:22;;;;;;;40.90;22.08;;;8.50;99.90;;;;;;5031962;28;20037;-64
2021/04/19 03:28:51;;;;;;;41.40;22.67;;;8.40;99.90;;;;;;5014230;28;20525;-64
2021/04/19 03:31:30;;;;;;;47.22;24.50;;;8.40;99.90;;;;;;5031874;28;20057;-64
2021/04/19 03:34:01;;;;;;;42.17;22.55;;;8.30;99.90;;;;;;5031845;28;20331;-64
2021/04/19 03:36:29;;;;;;;45.35;22.75;;;8.40;99.90;;;;;;5014590;28;20029;-65
2021/04/19 03:38:56;;;;;;;36.10;21.05;;;8.40;99.90;;;;;;4998055;28;20209;-64
2021/04/19 03:41:23;;;;;;;42.15;23.02;;;8.50;99.90;;;;;;5014228;28;20083;-65
2021/04/19 03:43:57;;;;;;;43.38;22.50;;;8.50;99.90;;;;;;5031706;28;20121;-65
2021/04/19 03:46:24;;;;;;;43.30;22.70;;;8.50;99.90;;;;;;5013747;28;20418;-64
2021/04/19 03:49:00;;;;;;;44.35;23.88;;;8.50;99.90;;;;;;5014071;28;20038;-63
2021/04/19 03:51:27;;;;;;;44.63;23.77;;;8.40;99.90;;;;;;5016625;28;20025;-67
2021/04/19 03:53:56;;;;;;;43.42;24.05;;;8.30;99.90;;;;;;5017684;28;20026;-67
2021/04/19 03:56:25;;;;;;;44.17;22.70;;;8.30;99.90;;;;;;5013933;28;20018;-67
2021/04/19 03:58:52;;;;;;;47.08;23.70;;;8.20;99.90;;;;;;5028231;28;20599;-66
2021/04/19 04:01:20;;;;;;;43.20;23.95;;;8.10;99.90;;;;;;5016059;28;20096;-67
2021/04/19 04:03:49;;;;;;;42.97;24.42;;;8.20;99.90;;;;;;5016005;28;20046;-68
2021/04/19 04:06:17;;;;;;;45.95;25.02;;;8.10;99.90;;;;;;5045066;28;20386;-68
2021/04/19 04:08:44;;;;;;;49.47;26.38;;;8.00;99.90;;;;;;5054259;28;20440;-67
2021/04/19 04:11:11;;;;;;;50.35;26.10;;;8.10;99.90;;;;;;5053250;28;20113;-67
2021/04/19 04:13:37;;;;;;;47.05;26.35;;;8.20;99.90;;;;;;5053055;28;20622;-68
2021/04/19 04:16:04;;;;;;;49.38;26.40;;;8.20;99.90;;;;;;5054211;28;20090;-69
2021/04/19 04:18:30;;;;;;;52.30;27.25;;;8.10;99.90;;;;;;5053915;28;20764;-70
2021/04/19 04:20:56;;;;;;;51.35;26.60;;;8.20;99.90;;;;;;5053751;28;20053;-69
2021/04/19 04:23:22;;;;;;;59.00;28.58;;;8.10;99.90;;;;;;5054595;28;20033;-70
2021/04/19 04:25:51;;;;;;;57.88;29.38;;;8.10;99.90;;;;;;5054379;28;20167;-68
2021/04/19 04:28:19;;;;;;;52.47;26.80;;;8.00;99.90;;;;;;5054562;28;20029;-68
2021/04/19 04:30:45;;;;;;;51.03;28.65;;;8.10;99.90;;;;;;5054088;28;20691;-68
2021/04/19 04:33:11;;;;;;;53.75;28.88;;;8.10;99.90;;;;;;5054425;28;20130;-69
2021/04/19 04:35:38;;;;;;;51.35;28.30;;;8.00;99.90;;;;;;5054304;28;20033;-69
2021/04/19 04:38:05;;;;;;;48.95;27.27;;;8.10;99.90;;;;;;5053969;28;20253;-69
2021/04/19 04:40:33;;;;;;;47.78;27.08;;;8.10;99.90;;;;;;5054212;28;20090;-70
2021/04/19 04:43:24;;;;;;;53.80;28.05;;;8.00;99.90;;;;;;5054129;28;20029;-69
2021/04/19 04:45:58;;;;;;;48.90;28.17;;;8.10;99.90;;;;;;5054004;28;20543;-69
2021/04/19 04:49:11;;;;;;;58.55;30.00;;;8.00;99.90;;;;;;5053061;28;20040;-67
2021/04/19 04:51:40;;;;;;;53.03;28.63;;;8.20;99.90;;;;;;5053049;28;20032;-69
2021/04/19 04:54:14;;;;;;;56.67;29.45;;;8.10;99.90;;;;;;5013445;28;20100;-70
2021/04/19 04:56:44;;;;;;;56.20;29.05;;;8.10;99.90;;;;;;5049010;28;20029;-70
2021/04/19 04:59:12;;;;;;;57.08;27.25;;;8.10;99.90;;;;;;5035921;28;20036;-71
2021/04/19 05:01:38;;;;;;;53.92;28.05;;;8.20;99.90;;;;;;5051998;28;20110;-71
2021/04/19 05:04:06;;;;;;;48.80;26.63;;;8.20;99.90;;;;;;5053627;28;20029;-71
2021/04/19 05:06:33;;;;;;;57.47;29.05;;;8.10;99.90;;;;;;5052569;28;20033;-72
2021/04/19 05:09:03;;;;;;;60.35;29.00;;;8.20;99.90;;;;;;5053544;28;20029;-70
2021/04/19 05:11:29;;;;;;;46.60;26.38;;;8.30;99.90;;;;;;5036127;28;20040;-70
2021/04/19 05:14:02;;;;;;;47.13;26.33;;;8.40;99.90;;;;;;5051983;28;20025;-70
2021/04/19 05:16:30;;;;;;;45.22;24.13;;;8.40;99.90;;;;;;5035712;28;20052;-70
2021/04/19 05:19:02;;;;;;;53.00;27.67;;;8.20;99.90;;;;;;5053560;28;20485;-70
2021/04/19 05:21:28;;;;;;;59.65;28.63;;;8.10;99.90;;;;;;5053336;28;20065;-70
2021/04/19 05:23:55;;;;;;;53.13;28.27;;;8.10;99.90;;;;;;5053346;28;20064;-70
2021/04/19 05:26:21;;;;;;;53.05;28.40;;;8.10;99.90;;;;;;5041081;28;20059;-70
2021/04/19 05:28:48;;;;;;;50.33;26.90;;;8.10;99.90;;;;;;5035468;28;20017;-70
2021/04/19 05:31:17;;;;;;;49.80;26.45;;;8.20;99.90;;;;;;5018800;28;20509;-71
2021/04/19 05:33:42;;;;;;;54.15;26.55;;;8.30;99.90;;;;;;5012967;28;20034;-73
2021/04/19 05:36:10;;;;;;;47.65;25.48;;;8.40;99.90;;;;;;5012558;28;20376;-71
2021/04/19 05:38:38;;;;;;;57.10;26.08;;;8.50;99.90;;;;;;5013524;28;20037;-69
2021/04/19 05:41:05;;;;;;;41.70;23.35;;;8.50;99.90;;;;;;5012800;28;20049;-70
2021/04/19 05:43:31;;;;;;;46.47;24.48;;;8.60;99.90;;;;;;5012082;28;20026;-70
2021/04/19 05:45:59;;;;;;;43.53;24.10;;;8.60;99.90;;;;;;5011861;28;20597;-70
2021/04/19 05:48:25;;;;;;;41.33;23.30;;;8.60;99.90;;;;;;5012092;28;20026;-69
2021/04/19 05:50:56;;;;;;;44.13;23.27;;;8.70;99.90;;;;;;5013003;28;20112;-69
2021/04/19 05:53:22;;;;;;;41.45;23.75;;;8.50;99.90;;;;;;5029061;28;20474;-69
2021/04/19 05:55:52;;;;;;;45.20;24.10;;;8.60;99.90;;;;;;5032597;28;20041;-69
2021/04/19 05:58:47;;;;;;;42.33;23.73;;;8.70;99.90;;;;;;5031600;28;20033;-69
2021/04/19 06:01:20;;;;;;;39.97;23.55;;;8.80;99.90;;;;;;5031500;28;20489;-69
2021/04/19 06:04:42;;;;;;;43.28;23.90;;;8.90;99.90;;;;;;5032499;28;20044;-69
2021/04/19 06:07:20;;;;;;;66.75;31.48;;;8.80;99.90;;;;;;5014075;28;20052;-69
2021/04/19 06:10:14;;;;;;;44.55;25.23;;;8.90;99.90;;;;;;5014967;28;20029;-70
2021/04/19 06:12:50;;;;;;;53.90;27.33;;;9.00;99.90;;;;;;5031585;28;20421;-69
2021/04/19 06:15:23;;;;;;;41.47;22.60;;;9.10;99.90;;;;;;5031243;28;20033;-72
2021/04/19 06:17:52;;;;;;;37.10;21.17;;;9.20;99.90;;;;;;5031904;28;20116;-69
2021/04/19 06:20:20;;;;;;;43.45;22.55;;;9.20;99.90;;;;;;5030843;28;20057;-68
2021/04/19 06:22:54;;;;;;;37.25;21.67;;;9.00;99.90;;;;;;5014542;28;20029;-70
2021/04/19 06:25:23;;;;;;;39.17;21.95;;;9.10;99.90;;;;;;5032308;28;20029;-69
2021/04/19 06:27:58;;;;;;;39.33;22.20;;;9.10;99.90;;;;;;5032127;28;20034;-69
2021/04/19 06:30:27;;;;;;;39.95;22.95;;;9.10;99.90;;;;;;5031205;28;20175;-69
2021/04/19 06:32:53;;;;;;;41.10;22.67;;;9.30;99.90;;;;;;5032019;28;20033;-69
2021/04/19 06:35:19;;;;;;;40.88;21.55;;;9.30;99.90;;;;;;5032425;28;20109;-69
2021/04/19 06:37:57;;;;;;;48.30;25.00;;;9.10;99.90;;;;;;5034545;28;20036;-68
2021/04/19 06:40:24;;;;;;;46.55;23.63;;;9.20;99.90;;;;;;5032926;28;20029;-69
2021/04/19 06:42:53;;;;;;;42.00;23.27;;;9.10;99.90;;;;;;5031758;28;20029;-69
2021/04/19 06:45:20;;;;;;;41.83;23.02;;;9.10;99.90;;;;;;5032664;28;20045;-68
2021/04/19 06:47:47;;;;;;;48.88;25.65;;;8.90;99.90;;;;;;5031437;28;20036;-68
2021/04/19 06:50:13;;;;;;;45.08;23.45;;;8.90;99.90;;;;;;5031771;28;20125;-67
2021/04/19 06:52:46;;;;;;;45.65;25.67;;;8.80;99.90;;;;;;5031538;28;20494;-68
2021/04/19 06:55:15;;;;;;;43.42;23.90;;;9.00;99.90;;;;;;5016098;28;20072;-68
2021/04/19 06:57:45;;;;;;;41.17;23.17;;;9.20;99.90;;;;;;5031793;28;20025;-69
2021/04/19 07:00:13;;;;;;;45.58;23.13;;;9.40;99.90;;;;;;5032446;28;20060;-69
2021/04/19 07:02:51;;;;;;;40.92;22.20;;;9.30;99.90;;;;;;5031480;28;20030;-69
2021/04/19 07:05:21;;;;;;;44.30;23.77;;;9.30;99.90;;;;;;5010801;28;20034;-69
2021/04/19 07:08:19;;;;;;;48.65;24.20;;;9.50;99.90;;;;;;5036217;28;20051;-69
2021/04/19 07:10:46;;;;;;;48.42;24.70;;;9.60;99.90;;;;;;5038055;28;20087;-68
2021/04/19 07:13:14;;;;;;;104.10;50.63;;;9.80;99.90;;;;;;5014217;28;20386;-68
2021/04/19 07:15:45;;;;;;;39.70;21.98;;;10.00;99.90;;;;;;5014270;28;20026;-68
2021/04/19 07:18:12;;;;;;;38.45;21.17;;;10.10;99.90;;;;;;5031639;28;20091;-68
2021/04/19 07:20:38;;;;;;;34.50;19.38;;;10.00;99.90;;;;;;5013992;28;20049;-69
2021/04/19 07:23:05;;;;;;;36.08;19.00;;;10.30;99.90;;;;;;5031388;28;20044;-68
2021/04/19 07:25:32;;;;;;;32.97;19.30;;;10.30;99.90;;;;;;5034464;28;20029;-68
2021/04/19 07:28:04;;;;;;;35.53;18.83;;;10.30;99.90;;;;;;5035217;28;20124;-68
2021/04/19 07:30:31;;;;;;;33.20;19.30;;;10.10;99.90;;;;;;5049825;28;20068;-68
2021/04/19 07:32:56;;;;;;;35.05;20.33;;;9.90;99.90;;;;;;5053602;28;20025;-69
2021/04/19 07:35:32;;;;;;;34.85;19.70;;;10.00;99.90;;;;;;5037907;28;20039;-70
2021/04/19 07:38:07;;;;;;;32.67;18.70;;;10.20;99.90;;;;;;5034706;28;20228;-69
2021/04/19 07:40:40;;;;;;;33.75;18.75;;;10.10;99.90;;;;;;5028278;28;20124;-69
2021/04/19 07:43:12;;;;;;;34.53;18.63;;;10.30;99.90;;;;;;5041676;28;20044;-69
2021/04/19 07:46:07;;;;;;;32.05;17.98;;;10.60;99.90;;;;;;5035034;28;20128;-68
2021/04/19 07:48:39;;;;;;;30.83;15.65;;;10.60;99.90;;;;;;5049994;28;20068;-69
2021/04/19 07:51:33;;;;;;;26.65;15.07;;;10.80;99.90;;;;;;5043473;28;20040;-69
2021/04/19 07:54:21;;;;;;;26.80;15.55;;;11.20;99.90;;;;;;5050599;28;20080;-69
2021/04/19 07:56:53;;;;;;;25.08;15.05;;;11.20;99.90;;;;;;5052215;28;20025;-69
2021/04/19 07:59:33;;;;;;;22.35;13.48;;;11.40;99.90;;;;;;5053865;28;20116;-68
2021/04/19 08:02:01;;;;;;;26.10;13.73;;;11.60;99.90;;;;;;5053374;28;20029;-68
2021/04/19 08:04:29;;;;;;;23.83;13.15;;;11.50;99.90;;;;;;5054703;28;20032;-68
2021/04/19 08:06:56;;;;;;;22.00;13.75;;;11.50;99.90;;;;;;5054806;28;20029;-69
2021/04/19 08:09:29;;;;;;;24.38;14.60;;;11.50;99.90;;;;;;5054688;28;20105;-69
2021/04/19 08:11:58;;;;;;;23.80;13.25;;;11.50;99.90;;;;;;5036788;28;20032;-69
2021/04/19 08:14:33;;;;;;;20.80;13.00;;;11.90;99.90;;;;;;5054740;28;20051;-68
2021/04/19 08:17:12;;;;;;;18.75;12.07;;;11.90;99.90;;;;;;5053392;28;20128;-68
2021/04/19 08:19:40;;;;;;;20.75;12.60;;;12.00;99.90;;;;;;5054338;28;20044;-69
2021/04/19 08:22:18;;;;;;;19.48;12.20;;;11.90;99.90;;;;;;5054563;28;20032;-68
2021/04/19 08:24:46;;;;;;;20.33;12.07;;;11.80;99.90;;;;;;5054350;28;20029;-68
2021/04/19 08:27:25;;;;;;;20.05;11.30;;;11.90;99.90;;;;;;5054395;28;20413;-68
2021/04/19 08:29:51;;;;;;;18.92;11.80;;;12.00;99.90;;;;;;5054310;28;20025;-69
2021/04/19 08:32:21;;;;;;;20.83;11.57;;;11.60;99.90;;;;;;5054216;28;20036;-69
2021/04/19 08:34:49;;;;;;;20.30;12.23;;;11.70;99.90;;;;;;5054236;28;20447;-70
2021/04/19 08:37:28;;;;;;;17.95;11.35;;;11.80;99.90;;;;;;5053208;28;20051;-69
2021/04/19 08:39:59;;;;;;;18.23;12.48;;;11.80;99.90;;;;;;5053877;28;20653;-69
2021/04/19 08:42:27;;;;;;;21.33;13.52;;;11.70;99.90;;;;;;5036517;28;20407;-68
2021/04/19 08:45:01;;;;;;;19.30;12.25;;;11.70;99.90;;;;;;5054027;28;20037;-69
2021/04/19 08:47:28;;;;;;;25.27;13.85;;;11.70;99.90;;;;;;5054184;28;20103;-69
2021/04/19 08:50:02;;;;;;;25.60;14.00;;;11.40;99.90;;;;;;5053981;28;20032;-68
2021/04/19 08:52:28;;;;;;;22.70;13.02;;;11.60;99.90;;;;;;5053867;28;20091;-69
2021/04/19 08:54:56;;;;;;;24.88;14.25;;;11.60;99.90;;;;;;5053957;28;20033;-69
2021/04/19 08:57:23;;;;;;;24.50;14.27;;;11.50;99.90;;;;;;5053560;28;20024;-68
2021/04/19 08:59:52;;;;;;;23.05;14.38;;;11.50;99.90;;;;;;5053787;28;20094;-69
2021/04/19 09:02:21;;;;;;;22.05;13.07;;;11.50;99.90;;;;;;5052486;28;20406;-68
2021/04/19 09:05:16;;;;;;;20.23;11.55;;;11.50;99.90;;;;;;5053570;28;20044;-69
2021/04/19 09:07:46;;;;;;;18.25;11.30;;;11.50;99.90;;;;;;5053764;28;20470;-68
2021/04/19 09:10:21;;;;;;;23.60;12.90;;;11.60;99.90;;;;;;5053469;28;20044;-69
2021/04/19 09:12:47;;;;;;;22.30;12.32;;;11.50;99.90;;;;;;5053575;28;20033;-69
2021/04/19 09:15:29;;;;;;;19.35;11.63;;;11.50;99.90;;;;;;5053388;28;20370;-70
2021/04/19 09:18:10;;;;;;;17.30;10.52;;;11.70;99.90;;;;;;5052495;28;20029;-70
2021/04/19 09:20:54;;;;;;;20.60;11.10;;;11.80;99.90;;;;;;5052928;28;20402;-71
2021/04/19 09:23:32;;;;;;;17.02;10.32;;;11.80;99.90;;;;;;5053196;28;20040;-69
2021/04/19 09:26:01;;;;;;;17.40;10.02;;;11.80;99.90;;;;;;5053257;28;20115;-69
2021/04/19 09:28:39;;;;;;;15.02;9.60;;;11.90;99.90;;;;;;5053226;28;20029;-69
2021/04/19 09:31:06;;;;;;;13.90;8.80;;;12.00;99.90;;;;;;5052987;28;20033;-69
2021/04/19 09:33:32;;;;;;;14.27;8.35;;;12.20;99.90;;;;;;5053246;28;20095;-64
2021/04/19 09:35:58;;;;;;;12.80;7.75;;;12.30;99.90;;;;;;5052996;28;20041;-67
2021/04/19 09:38:37;;;;;;;14.68;9.57;;;12.40;99.90;;;;;;4990769;28;20401;-66
2021/04/19 09:41:08;;;;;;;12.43;7.55;;;12.50;99.90;;;;;;5052852;28;20103;-73
2021/04/19 09:43:43;;;;;;;10.63;6.75;;;12.70;99.90;;;;;;5051712;28;20111;-67
2021/04/19 09:46:33;;;;;;;11.40;6.72;;;12.90;99.90;;;;;;5044016;28;20444;-67
2021/04/19 09:49:05;;;;;;;14.00;8.65;;;12.80;99.90;;;;;;5014136;28;20391;-74
2021/04/19 09:51:39;;;;;;;10.10;6.43;;;12.50;99.90;;;;;;5015165;28;20043;-69
2021/04/19 09:54:18;;;;;;;11.68;6.53;;;12.80;99.90;;;;;;5032808;28;20029;-68
2021/04/19 09:56:49;;;;;;;9.52;6.15;;;13.30;99.90;;;;;;5032769;28;20029;-68
2021/04/19 09:59:23;;;;;;;9.48;5.80;;;13.60;99.90;;;;;;5032574;28;20048;-67
2021/04/19 10:01:55;;;;;;;12.02;6.03;;;13.50;99.90;;;;;;5032794;28;20039;-68
2021/04/19 10:04:22;;;;;;;13.27;6.40;;;13.50;99.90;;;;;;5032297;28;20037;-70
2021/04/19 10:07:00;;;;;;;7.60;5.18;;;13.70;99.90;;;;;;5032558;28;20040;-69
2021/04/19 10:09:29;;;;;;;9.90;5.43;;;13.80;99.90;;;;;;5032529;28;20033;-69
2021/04/19 10:12:02;;;;;;;11.75;5.82;;;13.80;99.90;;;;;;5032315;28;20061;-68
2021/04/19 10:14:35;;;;;;;11.13;5.68;;;13.50;99.90;;;;;;5032382;28;20038;-66
2021/04/19 10:17:21;;;;;;;8.02;4.28;;;13.90;99.90;;;;;;5032505;28;20029;-68
2021/04/19 10:19:47;;;;;;;7.65;4.50;;;13.80;99.90;;;;;;5032198;28;20072;-69
2021/04/19 10:22:13;;;;;;;9.88;5.50;;;14.10;99.90;;;;;;5032315;28;20026;-69
2021/04/19 10:24:58;;;;;;;6.88;4.60;;;14.10;99.90;;;;;;5032086;28;20083;-70
2021/04/19 10:27:28;;;;;;;8.23;5.13;;;13.80;99.90;;;;;;5032308;28;20041;-69
2021/04/19 10:30:06;;;;;;;7.47;4.57;;;13.40;99.90;;;;;;5030635;28;20030;-69
2021/04/19 10:32:32;;;;;;;7.88;5.13;;;13.50;99.90;;;;;;5031159;28;20882;-70
2021/04/19 10:34:58;;;;;;;6.38;4.10;;;13.50;99.90;;;;;;5031913;28;20132;-69
2021/04/19 10:37:24;;;;;;;12.18;5.40;;;14.00;99.90;;;;;;5032202;28;20044;-70
2021/04/19 10:39:50;;;;;;;6.10;3.90;;;14.70;99.90;;;;;;5032214;28;20080;-70
2021/04/19 10:42:27;;;;;;;6.03;3.80;;;15.20;99.90;;;;;;5030923;28;20021;-70
2021/04/19 10:44:54;;;;;;;7.50;4.10;;;15.50;99.90;;;;;;5040897;28;20040;-70
2021/04/19 10:47:29;;;;;;;8.38;4.78;;;14.90;99.90;;;;;;5050786;28;20112;-71
2021/04/19 10:49:55;;;;;;;7.45;4.68;;;14.20;99.90;;;;;;5052018;28;20473;-70
2021/04/19 10:52:21;;;;;;;8.77;4.50;;;14.30;99.90;;;;;;5051733;28;20104;-69
2021/04/19 10:54:48;;;;;;;7.57;4.60;;;13.90;99.90;;;;;;5051868;28;20446;-70
2021/04/19 10:57:29;;;;;;;7.53;4.20;;;13.90;99.90;;;;;;5051562;28;20059;-70
2021/04/19 10:59:59;;;;;;;8.75;5.20;;;13.40;99.90;;;;;;5053627;28;20033;-69
2021/04/19 11:02:30;;;;;;;7.30;4.80;;;13.00;99.90;;;;;;5055729;28;20059;-70
2021/04/19 11:04:57;;;;;;;8.18;4.70;;;13.00;99.90;;;;;;5037649;28;20106;-68
2021/04/19 11:07:43;;;;;;;9.55;5.55;;;13.30;99.90;;;;;;5054567;28;20086;-70
2021/04/19 11:10:26;;;;;;;7.68;5.07;;;13.20;99.90;;;;;;5055782;28;20064;-70
2021/04/19 11:13:10;;;;;;;7.45;4.82;;;13.50;99.90;;;;;;5055743;28;20087;-69
2021/04/19 11:15:42;;;;;;;8.70;4.93;;;13.40;99.90;;;;;;5055766;28;20037;-70
2021/04/19 11:18:28;;;;;;;8.10;5.07;;;13.30;99.90;;;;;;5055563;28;20087;-70
2021/04/19 11:20:56;;;;;;;8.35;4.90;;;13.30;99.90;;;;;;5055166;28;20060;-70
2021/04/19 11:23:35;;;;;;;9.10;5.38;;;13.30;99.90;;;;;;5055196;28;20086;-71
2021/04/19 11:26:11;;;;;;;7.57;5.22;;;13.10;99.90;;;;;;5053688;28;20037;-70
2021/04/19 11:28:44;;;;;;;9.25;5.53;;;13.00;99.90;;;;;;5055471;28;20034;-70
2021/04/19 11:31:21;;;;;;;9.20;6.07;;;12.80;99.90;;;;;;5055164;28;20434;-70
2021/04/19 11:34:04;;;;;;;10.02;6.00;;;12.70;99.90;;;;;;5055433;28;20107;-70
2021/04/19 11:36:42;;;;;;;10.25;6.22;;;12.70;99.90;;;;;;5039561;28;20040;-70
2021/04/19 11:39:20;;;;;;;13.57;6.25;;;12.70;99.90;;;;;;5035191;28;20037;-69
2021/04/19 11:41:51;;;;;;;9.23;5.90;;;12.10;99.90;;;;;;5033805;28;20517;-68
2021/04/19 11:44:17;;;;;;;9.68;6.00;;;12.20;99.90;;;;;;5035240;28;20025;-69
2021/04/19 11:46:47;;;;;;;8.95;5.70;;;12.30;99.90;;;;;;5034827;28;20128;-69
2021/04/19 11:49:23;;;;;;;9.30;5.55;;;12.30;99.90;;;;;;5035033;28;20175;-69
2021/04/19 11:51:49;;;;;;;7.78;4.97;;;12.50;99.90;;;;;;5035107;28;20043;-69
2021/04/19 11:54:16;;;;;;;9.07;4.55;;;12.50;99.90;;;;;;5034464;28;20101;-69
2021/04/19 11:56:41;;;;;;;9.63;5.10;;;12.60;99.90;;;;;;5034962;28;20477;-69
2021/04/19 11:59:07;;;;;;;10.40;5.18;;;12.60;99.90;;;;;;5035015;28;20125;-69
2021/04/19 12:01:35;;;;;;;10.52;6.00;;;12.50;99.90;;;;;;5034782;28;20033;-69
2021/04/19 12:04:03;;;;;;;13.60;7.82;;;12.60;99.90;;;;;;5034827;28;20036;-70
2021/04/19 12:06:29;;;;;;;8.43;5.35;;;12.60;99.90;;;;;;5034561;28;20743;-69
2021/04/19 12:08:55;;;;;;;10.82;5.75;;;12.50;99.90;;;;;;5034824;28;20531;-70
2021/04/19 12:11:24;;;;;;;11.60;5.45;;;12.50;99.90;;;;;;5033666;28;20056;-70
2021/04/19 12:13:58;;;;;;;7.65;4.57;;;12.50;99.90;;;;;;5033917;28;20117;-69
2021/04/19 12:16:24;;;;;;;7.45;4.68;;;12.70;99.90;;;;;;5001580;28;20033;-69
2021/04/19 12:18:50;;;;;;;6.72;4.15;;;12.70;99.90;;;;;;5034624;28;20046;-69
2021/04/19 12:21:16;;;;;;;8.32;4.72;;;12.80;99.90;;;;;;5033903;28;20152;-69
2021/04/19 12:23:42;;;;;;;6.45;4.18;;;12.90;99.90;;;;;;5034449;28;20037;-68
2021/04/19 12:26:08;;;;;;;8.05;4.70;;;13.00;99.90;;;;;;5034506;28;20048;-70
2021/04/19 12:28:33;;;;;;;7.70;4.03;;;13.10;99.90;;;;;;5043372;28;20041;-70
2021/04/19 12:31:00;;;;;;;6.50;4.65;;;13.20;99.90;;;;;;5054399;28;20495;-70
2021/04/19 12:33:27;;;;;;;6.43;4.32;;;13.20;99.90;;;;;;5054104;28;20029;-69
2021/04/19 12:35:53;;;;;;;7.18;3.80;;;13.40;99.90;;;;;;5054345;28;20029;-70
2021/04/19 12:38:19;;;;;;;8.25;4.40;;;13.50;99.90;;;;;;5053970;28;20033;-70
2021/04/19 12:40:45;;;;;;;8.18;5.25;;;13.60;99.90;;;;;;5054192;28;20032;-70
2021/04/19 12:43:11;;;;;;;7.70;5.10;;;13.40;99.90;;;;;;5054101;28;20055;-68
2021/04/19 12:45:38;;;;;;;12.25;5.60;;;13.50;99.90;;;;;;5054103;28;20579;-68
2021/04/19 12:48:07;;;;;;;7.85;5.53;;;13.20;99.90;;;;;;5054009;28;20044;-69
2021/04/19 12:50:35;;;;;;;9.63;5.82;;;13.80;99.90;;;;;;5053852;28;20033;-68
2021/04/19 12:53:03;;;;;;;11.52;6.53;;;13.60;99.90;;;;;;5035603;28;20033;-69
2021/04/19 12:55:29;;;;;;;13.20;8.07;;;14.00;99.90;;;;;;5053396;28;20413;-69
2021/04/19 12:57:56;;;;;;;17.83;8.73;;;14.30;99.90;;;;;;5053845;28;20526;-69
2021/04/19 13:00:22;;;;;;;16.17;8.95;;;14.10;99.90;;;;;;5053712;28;20036;-69